createdAt,value
2022-10-02T00:01:44.281Z,8.75
2022-10-02T00:04:16.377Z,9.95
2022-10-02T00:06:48.655Z,9.40
2022-10-02T00:09:25.997Z,9.13
2022-10-02T00:11:58.717Z,8.73
2022-10-02T00:14:31.283Z,8.18
2022-10-02T00:17:01.928Z,13.18
2022-10-02T00:19:29.794Z,10.30
2022-10-02T00:22:13.178Z,6.30
2022-10-02T00:24:49.093Z,9.50
2022-10-02T00:27:32.130Z,7.82
2022-10-02T00:30:03.242Z,9.40
2022-10-02T00:32:35.931Z,9.68
2022-10-02T00:35:36.037Z,8.15
2022-10-02T00:38:16.464Z,7.18
2022-10-02T00:41:04.447Z,10.95
2022-10-02T00:43:41.096Z,8.25
2022-10-02T00:46:25.932Z,12.07
2022-10-02T00:49:21.591Z,9.00
2022-10-02T00:52:02.794Z,8.57
2022-10-02T00:54:54.968Z,9.38
2022-10-02T00:57:38.407Z,8.27
2022-10-02T01:00:10.643Z,8.13
2022-10-02T01:02:52.720Z,7.05
2022-10-02T01:05:21.985Z,10.75
2022-10-02T01:07:53.926Z,8.65
2022-10-02T01:10:25.417Z,10.35
2022-10-02T01:12:56.137Z,7.18
2022-10-02T01:15:29.078Z,9.90
2022-10-02T01:17:57.703Z,8.00
2022-10-02T01:20:31.349Z,8.98
2022-10-02T01:23:06.463Z,7.60
2022-10-02T01:25:35.998Z,7.25
2022-10-02T01:28:05.580Z,12.05
2022-10-02T01:30:36.587Z,8.88
2022-10-02T01:33:05.699Z,12.32
2022-10-02T01:35:36.556Z,11.35
2022-10-02T01:38:08.145Z,8.93
2022-10-02T01:40:38.958Z,6.53
2022-10-02T01:43:09.787Z,8.98
2022-10-02T01:46:02.422Z,11.10
2022-10-02T01:48:45.664Z,7.13
2022-10-02T01:51:40.482Z,12.75
2022-10-02T01:54:18.458Z,9.35
2022-10-02T01:56:56.786Z,10.40
2022-10-02T01:59:37.194Z,9.38
2022-10-02T02:02:14.085Z,6.95
2022-10-02T02:04:53.391Z,9.73
2022-10-02T02:07:29.128Z,9.35
2022-10-02T02:10:03.859Z,11.98
2022-10-02T02:12:42.224Z,8.18
2022-10-02T02:15:17.186Z,14.30
2022-10-02T02:17:51.998Z,12.27
2022-10-02T02:20:26.023Z,10.13
2022-10-02T02:22:56.352Z,9.25
2022-10-02T02:25:29.063Z,9.85
2022-10-02T02:28:02.588Z,9.15
2022-10-02T02:30:32.601Z,10.00
2022-10-02T02:33:05.209Z,14.20
2022-10-02T02:35:37.799Z,8.98
2022-10-02T02:38:09.400Z,5.72
2022-10-02T02:40:40.409Z,7.95
2022-10-02T02:43:13.817Z,8.02
2022-10-02T02:45:48.496Z,9.98
2022-10-02T02:48:21.495Z,9.60
2022-10-02T02:50:54.753Z,10.27
2022-10-02T02:53:26.900Z,9.13
2022-10-02T02:55:59.221Z,9.30
2022-10-02T02:58:32.729Z,9.38
2022-10-02T03:01:00.629Z,10.50
2022-10-02T03:03:28.919Z,8.50
2022-10-02T03:06:03.773Z,8.60
2022-10-02T03:08:36.336Z,9.35
2022-10-02T03:11:15.162Z,11.75
2022-10-02T03:13:56.351Z,13.05
2022-10-02T03:16:39.748Z,15.40
2022-10-02T03:19:25.563Z,11.13
2022-10-02T03:22:03.387Z,11.13
2022-10-02T03:24:36.812Z,12.10
2022-10-02T03:27:10.044Z,14.77
2022-10-02T03:29:46.044Z,17.23
2022-10-02T03:32:17.116Z,10.45
2022-10-02T03:34:45.630Z,11.00
2022-10-02T03:37:13.593Z,14.10
2022-10-02T03:39:43.784Z,13.57
2022-10-02T03:42:14.261Z,17.25
2022-10-02T03:44:44.846Z,10.52
2022-10-02T03:47:12.689Z,12.77
2022-10-02T03:49:40.687Z,10.40
2022-10-02T03:52:08.663Z,13.13
2022-10-02T03:54:37.698Z,12.27
2022-10-02T03:57:08.620Z,13.73
2022-10-02T03:59:43.880Z,13.88
2022-10-02T04:02:22.310Z,13.52
2022-10-02T04:04:55.424Z,14.10
2022-10-02T04:07:27.140Z,11.52
2022-10-02T04:10:03.765Z,9.45
2022-10-02T04:12:37.827Z,14.00
2022-10-02T04:15:15.854Z,13.38
2022-10-02T04:17:52.279Z,11.05
2022-10-02T04:20:26.122Z,12.65
2022-10-02T04:22:57.427Z,13.50
2022-10-02T04:25:29.908Z,15.27
2022-10-02T04:28:01.440Z,8.27
2022-10-02T04:30:30.082Z,13.75
2022-10-02T04:33:06.750Z,12.45
2022-10-02T04:35:40.602Z,15.25
2022-10-02T04:38:27.599Z,10.50
2022-10-02T04:41:10.054Z,16.70
2022-10-02T04:43:49.792Z,14.15
2022-10-02T04:46:37.611Z,14.65
2022-10-02T04:49:51.500Z,9.18
2022-10-02T04:52:52.494Z,12.88
2022-10-02T04:55:38.764Z,13.93
2022-10-02T04:58:30.042Z,12.68
2022-10-02T05:01:06.971Z,13.48
2022-10-02T05:03:52.562Z,9.80
2022-10-02T05:06:42.961Z,11.07
2022-10-02T05:09:17.139Z,9.25
2022-10-02T05:12:00.856Z,10.63
2022-10-02T05:14:47.513Z,8.43
2022-10-02T05:17:28.542Z,11.95
2022-10-02T05:20:05.277Z,12.00
2022-10-02T05:22:50.102Z,13.55
2022-10-02T05:25:56.400Z,14.70
2022-10-02T05:28:50.679Z,12.60
2022-10-02T05:31:33.351Z,9.60
2022-10-02T05:34:14.937Z,41.45
2022-10-02T05:36:59.501Z,14.20
2022-10-02T05:39:33.580Z,11.07
2022-10-02T05:42:09.750Z,11.73
2022-10-02T05:44:40.133Z,13.23
2022-10-02T05:47:13.517Z,10.10
2022-10-02T05:49:44.701Z,10.45
2022-10-02T05:52:16.861Z,10.95
2022-10-02T05:54:52.434Z,11.45
2022-10-02T05:57:27.419Z,10.88
2022-10-02T06:00:06.147Z,11.50
2022-10-02T06:02:48.314Z,15.70
2022-10-02T06:05:21.997Z,24.88
2022-10-02T06:07:53.751Z,13.38
2022-10-02T06:10:28.786Z,18.20
2022-10-02T06:13:05.954Z,10.07
2022-10-02T06:15:41.090Z,14.85
2022-10-02T06:18:13.193Z,9.93
2022-10-02T06:20:47.597Z,10.35
2022-10-02T06:23:23.304Z,11.93
2022-10-02T06:25:55.735Z,14.68
2022-10-02T06:28:30.668Z,9.07
2022-10-02T06:31:05.799Z,9.52
2022-10-02T06:33:34.178Z,12.93
2022-10-02T06:36:27.548Z,10.20
2022-10-02T06:39:13.628Z,6.97
2022-10-02T06:41:54.177Z,9.80
2022-10-02T06:44:30.271Z,8.10
2022-10-02T06:47:14.563Z,11.73
2022-10-02T06:49:57.836Z,17.75
2022-10-02T06:52:37.894Z,7.97
2022-10-02T06:55:21.260Z,7.18
2022-10-02T06:58:14.982Z,10.63
2022-10-02T07:00:50.872Z,10.48
2022-10-02T07:03:39.769Z,9.77
2022-10-02T07:06:25.157Z,9.32
2022-10-02T07:09:29.778Z,8.93
2022-10-02T07:12:11.054Z,10.07
2022-10-02T07:14:59.005Z,6.95
2022-10-02T07:17:52.447Z,7.47
2022-10-02T07:20:42.059Z,13.50
2022-10-02T07:23:28.130Z,6.72
2022-10-02T07:26:11.296Z,8.10
2022-10-02T07:28:43.478Z,6.03
2022-10-02T07:31:21.511Z,6.65
2022-10-02T07:34:05.196Z,9.40
2022-10-02T07:36:44.979Z,10.02
2022-10-02T07:39:25.553Z,10.60
2022-10-02T07:42:07.758Z,6.90
2022-10-02T07:45:02.467Z,8.90
2022-10-02T07:47:57.107Z,8.88
2022-10-02T07:50:35.696Z,11.43
2022-10-02T07:53:12.252Z,13.68
2022-10-02T07:55:42.545Z,7.30
2022-10-02T07:58:15.573Z,8.65
2022-10-02T08:00:49.323Z,7.55
2022-10-02T08:03:23.225Z,9.23
2022-10-02T08:05:54.251Z,6.40
2022-10-02T08:08:28.938Z,6.65
2022-10-02T08:11:03.926Z,8.25
2022-10-02T08:13:37.217Z,8.82
2022-10-02T08:16:06.099Z,7.72
2022-10-02T08:18:38.901Z,7.38
2022-10-02T08:21:13.078Z,11.85
2022-10-02T08:23:46.878Z,11.30
2022-10-02T08:26:20.449Z,8.23
2022-10-02T08:28:57.133Z,9.85
2022-10-02T08:31:26.405Z,7.32
2022-10-02T08:33:57.662Z,4.82
2022-10-02T08:37:05.308Z,14.98
2022-10-02T08:40:20.339Z,10.40
2022-10-02T08:43:22.929Z,6.20
2022-10-02T08:46:48.662Z,7.20
2022-10-02T08:49:54.918Z,7.03
2022-10-02T08:52:45.778Z,3.47
2022-10-02T08:55:50.651Z,4.70
2022-10-02T08:58:57.975Z,4.53
2022-10-02T09:02:01.567Z,5.57
2022-10-02T09:05:03.972Z,2.50
2022-10-02T09:08:09.361Z,5.55
2022-10-02T09:11:15.905Z,6.05
2022-10-02T09:14:14.712Z,3.05
2022-10-02T09:17:06.147Z,3.13
2022-10-02T09:19:47.235Z,4.68
2022-10-02T09:22:40.388Z,3.70
2022-10-02T09:25:28.196Z,3.47
2022-10-02T09:28:49.753Z,2.20
2022-10-02T09:31:55.343Z,2.70
2022-10-02T09:34:43.886Z,3.25
2022-10-02T09:37:30.629Z,2.38
2022-10-02T09:40:36.947Z,3.72
2022-10-02T09:43:34.682Z,3.05
2022-10-02T09:46:52.830Z,3.53
2022-10-02T09:49:47.682Z,2.13
2022-10-02T09:52:50.291Z,2.47
2022-10-02T09:55:54.372Z,3.55
2022-10-02T09:58:56.501Z,3.05
2022-10-02T10:01:54.188Z,3.85
2022-10-02T10:05:05.052Z,2.88
2022-10-02T10:08:11.552Z,1.50
2022-10-02T10:11:11.453Z,3.63
2022-10-02T10:14:21.849Z,1.73
2022-10-02T10:17:22.698Z,21.38
2022-10-02T10:20:17.795Z,10.30
2022-10-02T10:23:21.790Z,2.30
2022-10-02T10:26:26.339Z,2.40
2022-10-02T10:29:14.631Z,2.03
2022-10-02T10:32:20.319Z,1.98
2022-10-02T10:35:21.591Z,1.67
2022-10-02T10:38:14.758Z,1.13
2022-10-02T10:41:15.441Z,4.03
2022-10-02T10:44:22.457Z,2.30
2022-10-02T10:47:29.299Z,2.22
2022-10-02T10:50:24.649Z,1.83
2022-10-02T10:53:14.326Z,1.75
2022-10-02T10:56:00.118Z,3.03
2022-10-02T10:58:44.616Z,2.42
2022-10-02T11:01:18.680Z,1.33
2022-10-02T11:04:22.025Z,2.50
2022-10-02T11:07:07.655Z,1.80
2022-10-02T11:10:18.869Z,1.52
2022-10-02T11:13:19.539Z,1.30
2022-10-02T11:16:31.431Z,1.38
2022-10-02T11:19:30.072Z,2.28
2022-10-02T11:22:35.435Z,2.58
2022-10-02T11:25:22.028Z,2.90
2022-10-02T11:28:28.551Z,1.75
2022-10-02T11:31:17.497Z,1.52
2022-10-02T11:34:35.303Z,2.25
2022-10-02T11:37:24.413Z,2.85
2022-10-02T11:40:21.917Z,1.77
2022-10-02T11:43:11.412Z,2.75
2022-10-02T11:46:06.352Z,1.70
2022-10-02T11:49:04.113Z,1.58
2022-10-02T11:51:56.170Z,2.35
2022-10-02T11:54:45.214Z,2.35
2022-10-02T11:57:25.025Z,2.58
2022-10-02T12:00:08.923Z,2.88
2022-10-02T12:02:47.809Z,1.58
2022-10-02T12:05:26.233Z,2.35
2022-10-02T12:08:01.559Z,1.83
2022-10-02T12:10:47.546Z,2.72
2022-10-02T12:13:30.961Z,3.08
2022-10-02T12:16:05.898Z,2.42
2022-10-02T12:18:46.473Z,3.78
2022-10-02T12:21:51.559Z,2.08
2022-10-02T12:24:49.440Z,2.55
2022-10-02T12:27:29.690Z,3.50
2022-10-02T12:30:06.491Z,2.22
2022-10-02T12:33:08.217Z,2.47
2022-10-02T12:35:48.239Z,2.10
2022-10-02T12:38:28.105Z,1.50
2022-10-02T12:41:08.499Z,2.42
2022-10-02T12:44:04.318Z,2.95
2022-10-02T12:47:10.318Z,1.40
2022-10-02T12:49:49.117Z,2.78
2022-10-02T12:52:44.991Z,2.17
2022-10-02T12:56:01.446Z,4.63
2022-10-02T12:58:39.794Z,2.63
2022-10-02T13:02:07.202Z,3.72
2022-10-02T13:05:16.761Z,2.92
2022-10-02T13:08:14.158Z,3.13
2022-10-02T13:10:48.329Z,5.53
2022-10-02T13:13:31.607Z,2.63
2022-10-02T13:16:07.699Z,2.92
2022-10-02T13:18:55.399Z,4.32
2022-10-02T13:21:32.361Z,3.85
2022-10-02T13:24:19.656Z,2.38
2022-10-02T13:26:57.037Z,3.90
2022-10-02T13:29:43.000Z,2.90
2022-10-02T13:32:32.883Z,1.73
2022-10-02T13:35:25.970Z,2.00
2022-10-02T13:38:11.525Z,4.20
2022-10-02T13:40:50.998Z,3.35
2022-10-02T13:43:42.890Z,1.40
2022-10-02T13:46:30.005Z,2.90
2022-10-02T13:49:08.470Z,2.72
2022-10-02T13:51:47.098Z,3.15
2022-10-02T13:54:37.035Z,3.65
2022-10-02T13:57:16.440Z,3.35
2022-10-02T14:00:03.196Z,2.25
2022-10-02T14:02:49.658Z,1.83
2022-10-02T14:05:33.095Z,2.20
2022-10-02T14:08:33.681Z,3.15
2022-10-02T14:11:17.115Z,4.80
2022-10-02T14:14:03.689Z,3.67
2022-10-02T14:16:45.753Z,5.22
2022-10-02T14:19:45.816Z,3.38
2022-10-02T14:22:34.841Z,2.42
2022-10-02T14:25:22.856Z,2.50
2022-10-02T14:28:11.324Z,4.18
2022-10-02T14:30:55.081Z,14.52
2022-10-02T14:33:35.959Z,11.40
2022-10-02T14:36:10.891Z,6.00
2022-10-02T14:38:53.264Z,3.58
2022-10-02T14:41:48.567Z,3.60
2022-10-02T14:44:42.200Z,3.35
2022-10-02T14:47:27.291Z,3.38
2022-10-02T14:50:13.187Z,3.90
2022-10-02T14:53:08.818Z,2.70
2022-10-02T14:56:08.938Z,1.85
2022-10-02T14:58:49.458Z,3.28
2022-10-02T15:01:23.191Z,4.13
2022-10-02T15:04:29.702Z,4.93
2022-10-02T15:07:08.742Z,2.95
2022-10-02T15:10:02.495Z,2.47
2022-10-02T15:12:45.185Z,3.72
2022-10-02T15:15:18.760Z,3.38
2022-10-02T15:17:55.165Z,1.92
2022-10-02T15:20:39.160Z,3.08
2022-10-02T15:23:12.298Z,2.13
2022-10-02T15:25:55.362Z,3.15
2022-10-02T15:28:37.717Z,4.70
2022-10-02T15:31:17.890Z,2.17
2022-10-02T15:33:59.337Z,3.88
2022-10-02T15:37:02.551Z,3.78
2022-10-02T15:39:58.258Z,3.03
2022-10-02T15:42:48.121Z,3.55
2022-10-02T15:45:41.988Z,3.53
2022-10-02T15:48:37.706Z,3.85
2022-10-02T15:51:16.257Z,5.03
2022-10-02T15:53:52.905Z,4.85
2022-10-02T15:56:43.827Z,3.08
2022-10-02T15:59:28.105Z,5.22
2022-10-02T16:02:12.824Z,5.18
2022-10-02T16:04:53.217Z,5.88
2022-10-02T16:07:58.933Z,4.00
2022-10-02T16:10:35.879Z,6.93
2022-10-02T16:13:44.884Z,5.32
2022-10-02T16:16:35.214Z,7.00
2022-10-02T16:19:14.848Z,4.03
2022-10-02T16:22:01.523Z,6.40
2022-10-02T16:24:46.565Z,3.05
2022-10-02T16:27:21.813Z,4.57
2022-10-02T16:30:05.309Z,2.53
2022-10-02T16:32:40.754Z,5.18
2022-10-02T16:35:20.985Z,4.60
2022-10-02T16:37:59.905Z,2.67
2022-10-02T16:40:41.032Z,3.03
2022-10-02T16:43:28.888Z,7.07
2022-10-02T16:46:06.889Z,3.85
2022-10-02T16:48:48.639Z,5.53
2022-10-02T16:51:31.825Z,4.38
2022-10-02T16:54:13.601Z,5.38
2022-10-02T16:56:47.837Z,6.13
2022-10-02T16:59:22.737Z,4.47
2022-10-02T17:02:16.502Z,4.03
2022-10-02T17:04:50.065Z,3.05
2022-10-02T17:07:49.406Z,4.60
2022-10-02T17:10:32.695Z,3.25
2022-10-02T17:13:16.911Z,6.18
2022-10-02T17:16:07.771Z,3.95
2022-10-02T17:18:41.716Z,4.32
2022-10-02T17:21:14.601Z,5.00
2022-10-02T17:23:53.987Z,5.15
2022-10-02T17:26:31.389Z,6.55
2022-10-02T17:29:15.298Z,8.65
2022-10-02T17:31:51.549Z,6.30
2022-10-02T17:34:24.405Z,10.45
2022-10-02T17:37:03.825Z,9.60
2022-10-02T17:39:45.269Z,8.48
2022-10-02T17:42:23.684Z,7.80
2022-10-02T17:45:03.978Z,9.75
2022-10-02T17:47:55.731Z,11.10
2022-10-02T17:50:51.779Z,13.38
2022-10-02T17:53:59.831Z,11.27
2022-10-02T17:56:47.034Z,11.38
2022-10-02T17:59:30.519Z,8.35
2022-10-02T18:02:09.437Z,7.18
2022-10-02T18:04:48.991Z,6.40
2022-10-02T18:07:31.366Z,5.28
2022-10-02T18:10:08.572Z,4.93
2022-10-02T18:12:58.871Z,15.90
2022-10-02T18:15:35.821Z,16.23
2022-10-02T18:18:23.498Z,8.18
2022-10-02T18:21:05.021Z,4.72
2022-10-02T18:24:00.149Z,4.97
2022-10-02T18:26:40.766Z,4.13
2022-10-02T18:29:42.878Z,6.78
2022-10-02T18:32:27.136Z,2.65
2022-10-02T18:35:32.172Z,5.80
2022-10-02T18:38:17.921Z,4.30
2022-10-02T18:40:55.305Z,8.20
2022-10-02T18:43:47.571Z,3.92
2022-10-02T18:46:27.090Z,5.95
2022-10-02T18:49:08.497Z,7.22
2022-10-02T18:52:15.833Z,4.25
2022-10-02T18:54:59.338Z,6.32
2022-10-02T18:57:43.162Z,6.10
2022-10-02T19:00:18.682Z,7.07
2022-10-02T19:03:12.529Z,4.80
2022-10-02T19:05:44.557Z,5.03
2022-10-02T19:08:22.517Z,8.50
2022-10-02T19:10:50.367Z,4.13
2022-10-02T19:13:27.553Z,3.83
2022-10-02T19:15:57.895Z,5.38
2022-10-02T19:18:27.294Z,7.25
2022-10-02T19:20:59.686Z,5.13
2022-10-02T19:23:38.254Z,8.23
2022-10-02T19:26:17.736Z,12.55
2022-10-02T19:28:50.097Z,7.45
2022-10-02T19:31:22.986Z,8.45
2022-10-02T19:33:55.123Z,6.20
2022-10-02T19:36:27.242Z,4.15
2022-10-02T19:39:01.472Z,5.65
2022-10-02T19:41:34.114Z,4.30
2022-10-02T19:44:06.965Z,4.63
2022-10-02T19:46:39.438Z,6.45
2022-10-02T19:49:08.835Z,6.28
2022-10-02T19:51:45.028Z,4.03
2022-10-02T19:54:20.380Z,6.97
2022-10-02T19:56:48.718Z,4.13
2022-10-02T19:59:19.839Z,3.90
2022-10-02T20:01:52.304Z,5.88
2022-10-02T20:04:22.585Z,5.00
2022-10-02T20:06:53.921Z,4.65
2022-10-02T20:09:30.755Z,4.78
2022-10-02T20:12:05.393Z,4.00
2022-10-02T20:14:40.830Z,3.22
2022-10-02T20:17:09.943Z,3.58
2022-10-02T20:19:42.226Z,7.65
2022-10-02T20:22:18.979Z,4.05
2022-10-02T20:24:53.506Z,4.97
2022-10-02T20:27:27.955Z,8.73
2022-10-02T20:30:01.570Z,3.78
2022-10-02T20:32:34.063Z,3.28
2022-10-02T20:35:08.374Z,5.22
2022-10-02T20:37:37.045Z,9.93
2022-10-02T20:40:13.793Z,6.50
2022-10-02T20:42:50.097Z,4.82
2022-10-02T20:45:18.303Z,8.32
2022-10-02T20:48:32.681Z,8.05
2022-10-02T20:51:16.498Z,6.32
2022-10-02T20:54:28.555Z,7.22
2022-10-02T20:58:01.179Z,8.02
2022-10-02T21:00:41.499Z,7.03
2022-10-02T21:03:31.990Z,8.32
2022-10-02T21:06:26.302Z,10.73
2022-10-02T21:09:23.502Z,15.63
2022-10-02T21:12:28.048Z,8.68
2022-10-02T21:15:30.909Z,8.35
2022-10-02T21:18:25.583Z,17.10
2022-10-02T21:21:29.839Z,15.88
2022-10-02T21:24:27.944Z,11.20
2022-10-02T21:27:16.685Z,7.47
2022-10-02T21:29:58.079Z,8.30
2022-10-02T21:32:40.323Z,6.80
2022-10-02T21:35:34.063Z,6.30
2022-10-02T21:38:28.030Z,8.02
2022-10-02T21:41:30.685Z,7.30
2022-10-02T21:44:46.349Z,8.27
2022-10-02T21:47:40.420Z,9.88
2022-10-02T21:50:50.623Z,7.78
2022-10-02T21:53:52.638Z,9.50
2022-10-02T21:57:03.011Z,8.65
2022-10-02T21:59:51.994Z,7.57
2022-10-02T22:02:53.062Z,6.82
2022-10-02T22:05:54.419Z,6.15
2022-10-02T22:08:26.837Z,7.30
2022-10-02T22:11:06.869Z,6.45
2022-10-02T22:13:37.964Z,7.57
2022-10-02T22:16:29.807Z,6.72
2022-10-02T22:19:03.016Z,8.88
2022-10-02T22:21:49.447Z,7.30
2022-10-02T22:24:47.775Z,6.13
2022-10-02T22:27:42.752Z,6.95
2022-10-02T22:30:23.723Z,5.90
2022-10-02T22:33:13.690Z,6.35
2022-10-02T22:36:16.786Z,8.10
2022-10-02T22:38:49.273Z,10.32
2022-10-02T22:41:27.478Z,14.30
2022-10-02T22:43:59.942Z,5.70
2022-10-02T22:46:41.495Z,7.50
2022-10-02T22:49:22.282Z,8.05
2022-10-02T22:52:00.009Z,9.13
2022-10-02T22:54:39.325Z,7.07
2022-10-02T22:57:14.982Z,9.23
2022-10-02T22:59:48.170Z,9.90
2022-10-02T23:02:28.227Z,10.00
2022-10-02T23:05:05.261Z,11.52
2022-10-02T23:07:42.277Z,10.50
2022-10-02T23:10:23.334Z,10.00
2022-10-02T23:13:01.106Z,11.07
2022-10-02T23:15:42.550Z,9.93
2022-10-02T23:18:20.937Z,7.72
2022-10-02T23:20:54.875Z,8.98
2022-10-02T23:23:28.706Z,7.82
2022-10-02T23:26:06.540Z,10.13
2022-10-02T23:28:42.043Z,7.97
2022-10-02T23:31:18.748Z,8.88
2022-10-02T23:33:56.765Z,9.00
2022-10-02T23:36:30.073Z,10.48
2022-10-02T23:39:06.037Z,6.07
2022-10-02T23:41:47.388Z,11.45
2022-10-02T23:44:25.515Z,8.10
2022-10-02T23:47:20.891Z,10.98
2022-10-02T23:49:53.193Z,10.23
2022-10-02T23:52:49.180Z,15.90
2022-10-02T23:55:32.682Z,10.80
2022-10-02T23:58:26.441Z,11.07
